ダカール の空港の天気 - METARとTAF

レオポール・セダール・サンゴール国際空港 ( GOOY / DKR ) - セネガル ダカール
飛行場実況気象(Metar)
観測時間12/14 06:00 GMT (12/14 06:00 UTC)
風向・風速北北東 3m/s
視程8000m
天気現象
なし
気温22℃
湿度78%
気圧1014hPa
METARGOOY 140600Z 02006KT 8000 NSC 22/18 Q1014
過去の天気等 Google飛行場航空写真 Wunderground天気予報

過去48時間のMETAR

飛行場予報(TAF)
発表時間: 12/14 05:30 GMT (12/14 05:30 UTC)
予報対象時間: 14日6時 GMT ~ 15日12時 GMT
風向・風速北北東 6m/s
視程10km以上
なし
TAF GOOY 140530Z 1406/1512 03012KT CAVOK